Capitol Logistics 262


KBOS
Logan International Airport
Boston, Massachusetts, US
KMCI
Kansas City International Airport
Kansas City, Missouri, US

Route Details

Aircraft Information
Primary: Boeing 767-300BDSF
Backup: Boeing 757-200SF
Route Data
Distance: 1090nm
Sched. Duration: 3h 45m
Avg. Duration: 3h 29m (-16m)
Times Flown: 5
Recm'd Route: HYLND5 HYLND CAM Q822 GONZZ Q29 DORET DJB J60 JOT J26 IRK BQS6
Planned Altitude: 36,000ft
Origin Wx: KBOS 030254Z 20007KT 10SM OVC085 16/09 A2982 RMK AO2 SLP097 60000 T01560089 58011
Dest. Wx: KMCI 030253Z 20008KT 10SM SCT140 BKN220 24/19 A2993 RMK AO2 SLP125 T02440194 53006
Notes: METROAIR CARGO SUPPORT

Financial History
Total Freight: 421,062lbs
Average Load: 84,212lbs/flt
Fuel Used: 176,856lbs
Avg. Fuel Used: 35,371lbs/flt
Fuel Expense: $208,690
Avg. Fuel Expense: $41,738
Avg. Fuel Cost: $1.18/lbs
Total Gross Income: $560,743
Pilot Pay: $1,005
Total Expenses: $60,820
Total Revenue: $286,930
Average Revenue: $112,148.57